Weather at Ronald Reagan Washington National Airport

Public forecast

Using degrees Fahrenheit for public forecast. Weather courtesy of forecast.io.

Current aviation weather report (METAR) for Ronald Reagan Washington National Airport

Retrieved 2021/04/20 21:52 UTC (22 minutes ago):

KDCA 202152Z 18012G24KT 10SM FEW070 23/06 A2986 RMK AO2 PK WND 18027/2123 SLP110 T02280056

Aviation forecast (TAF) for Ronald Reagan Washington National Airport

Retrieved 2021/04/20 18:45 UTC (3 hours ago):

TAF KDCA 201742Z 2018/2124 18010G18KT P6SM FEW250 FM210000 18010KT P6SM FEW060 SCT140 FM211200 21012G20KT P6SM BKN060 BKN100 FM211600 23013G22KT 6SM -SHRA BR SCT025 OVC045 FM211800 29018G32KT P6SM SCT035 BKN050 FM212100 31021G34KT P6SM FEW100 FEW250